Time;durP1;ratioP1;P1;durP2;ratioP2;P2;SDS_P1;SDS_P2;PMS_P1;PMS_P2;Temp;Humidity;BMP_temperature;BMP_pressure;BME280_temperature;BME280_humidity;BME280_pressure;Samples;Min_cycle;Max_cycle;Signal;HPM_P1;HPM_P2
2022/11/19 00:01:17;;;;;;;6.38;4.10;;;0.60;76.70;;;;;;5019480;28;20045;-72
2022/11/19 00:03:44;;;;;;;6.50;4.43;;;;;;;;;;5031566;28;20046;-72
2022/11/19 00:06:11;;;;;;;10.30;5.82;;;;;;;;;;5030515;28;20057;-72
2022/11/19 00:08:38;;;;;;;6.90;4.57;;;;;;;;;;5030618;28;20167;-72
2022/11/19 00:11:06;;;;;;;5.43;4.00;;;0.50;77.40;;;;;;5022737;28;20063;-71
2022/11/19 00:13:33;;;;;;;7.07;4.28;;;0.60;92.80;;;;;;5011823;28;20046;-73
2022/11/19 00:16:02;;;;;;;6.13;4.28;;;0.40;77.30;;;;;;5010331;28;20418;-72
2022/11/19 00:18:29;;;;;;;6.10;4.18;;;0.40;92.70;;;;;;5010748;28;20058;-73
2022/11/19 00:20:56;;;;;;;7.65;4.30;;;;;;;;;;5017293;28;20049;-72
2022/11/19 00:23:23;;;;;;;6.03;4.10;;;;;;;;;;5030910;28;20056;-72
2022/11/19 00:25:50;;;;;;;5.60;4.03;;;0.40;82.80;;;;;;5030332;28;20057;-72
2022/11/19 00:28:17;;;;;;;7.80;4.60;;;;;;;;;;5030345;28;20501;-72
2022/11/19 00:30:45;;;;;;;7.65;4.57;;;0.30;77.70;;;;;;5026053;28;20491;-72
2022/11/19 00:33:12;;;;;;;8.23;3.97;;;;;;;;;;5010359;28;20049;-70
2022/11/19 00:35:39;;;;;;;14.57;6.90;;;;;;;;;;5011631;28;20056;-72
2022/11/19 00:38:06;;;;;;;6.30;4.47;;;;;;;;;;5014548;28;20082;-71
2022/11/19 00:40:33;;;;;;;8.18;4.57;;;0.10;93.20;;;;;;5017378;28;20049;-72
2022/11/19 00:45:47;;;;;;;6.78;4.47;;;0.20;78.20;;;;;;5035188;28;20042;-72
2022/11/19 00:48:14;;;;;;;6.63;4.53;;;;;;;;;;5034819;28;20495;-71
2022/11/19 00:50:42;;;;;;;6.18;4.40;;;0.10;93.10;;;;;;5030412;28;20042;-72
2022/11/19 00:53:09;;;;;;;8.18;4.95;;;;;;;;;;5014915;28;20425;-72
2022/11/19 00:55:37;;;;;;;32.38;12.93;;;0.90;93.20;;;;;;5013714;28;20474;-72
2022/11/19 00:58:04;;;;;;;60.05;26.50;;;;;;;;;;5013733;28;20046;-72
2022/11/19 01:00:31;;;;;;;8.13;4.70;;;;;;;;;;5014971;28;20081;-72
2022/11/19 01:02:59;;;;;;;7.57;4.82;;;1.10;93.30;;;;;;5033660;28;20053;-72
2022/11/19 01:05:26;;;;;;;8.30;5.32;;;;;;;;;;5034274;28;20422;-72
2022/11/19 01:07:53;;;;;;;7.20;4.90;;;;;;;;;;5034422;28;20380;-72
2022/11/19 01:10:20;;;;;;;9.60;4.50;;;;;;;;;;5033299;28;20410;-72
2022/11/19 01:15:32;;;;;;;6.75;4.60;;;;;;;;;;5013317;28;20057;-72
2022/11/19 01:18:00;;;;;;;11.13;6.70;;;-0.10;78.20;;;;;;5014504;28;20046;-73
2022/11/19 01:20:27;;;;;;;5.80;4.25;;;;;;;;;;5013397;28;20069;-73
2022/11/19 01:22:54;;;;;;;7.32;4.88;;;0.00;93.10;;;;;;5033185;28;20064;-73
2022/11/19 01:25:21;;;;;;;7.03;4.57;;;;;;;;;;5034325;28;20081;-72
2022/11/19 01:27:48;;;;;;;7.97;4.55;;;;;;;;;;5033987;28;20057;-72
2022/11/19 01:30:15;;;;;;;8.63;5.03;;;;;;;;;;5033592;28;20053;-71
2022/11/19 01:32:42;;;;;;;63.00;30.10;;;-0.20;92.90;;;;;;5013641;28;20050;-72
2022/11/19 01:35:11;;;;;;;7.35;4.38;;;0.70;93.40;;;;;;5013119;28;20448;-72
2022/11/19 01:37:38;;;;;;;7.20;4.50;;;;;;;;;;5014006;28;20056;-72
2022/11/19 01:40:06;;;;;;;6.22;4.25;;;-1.20;93.00;;;;;;5013445;28;20049;-72
2022/11/19 01:42:52;;;;;;;6.47;4.50;;;2.00;79.20;;;;;;5031579;28;20049;-72
2022/11/19 01:45:37;;;;;;;8.48;4.72;;;-0.10;93.30;;;;;;5032713;28;20136;-72
2022/11/19 01:48:06;;;;;;;6.85;4.82;;;-0.20;78.30;;;;;;5032098;28;20050;-72
2022/11/19 01:50:35;;;;;;;7.85;5.05;;;-0.10;93.40;;;;;;5030491;28;20141;-72
2022/11/19 01:53:02;;;;;;;7.40;5.03;;;;;;;;;;5012635;28;20056;-73
2022/11/19 01:55:29;;;;;;;10.98;5.07;;;;;;;;;;5012483;28;20052;-72
2022/11/19 01:57:57;;;;;;;7.55;5.47;;;-0.20;93.50;;;;;;5012603;28;20050;-73
2022/11/19 02:00:24;;;;;;;8.00;4.95;;;;;;;;;;5011871;28;20064;-71
2022/11/19 02:02:51;;;;;;;7.30;4.80;;;-0.70;93.20;;;;;;5032295;28;20060;-73
2022/11/19 02:05:18;;;;;;;7.28;4.93;;;-0.60;93.30;;;;;;5033496;28;20050;-73
2022/11/19 02:07:48;;;;;;;8.32;4.90;;;-0.40;78.70;;;;;;5032059;28;20045;-73
2022/11/19 02:10:16;;;;;;;6.68;4.65;;;;;;;;;;5031320;28;20136;-72
2022/11/19 02:12:44;;;;;;;6.72;4.70;;;-0.40;77.70;;;;;;5014570;28;20045;-73
2022/11/19 02:15:25;;;;;;;9.98;5.20;;;-0.40;87.80;;;;;;5012138;28;20136;-73
2022/11/19 02:18:00;;;;;;;7.85;4.82;;;-0.50;93.60;;;;;;5012093;28;20066;-72
2022/11/19 02:20:33;;;;;;;;;;;-0.50;79.20;;;;;;5012236;28;20058;-72
2022/11/19 02:23:28;;;;;;;9.07;4.53;;;-0.50;93.50;;;;;;5013382;28;19921;-72
2022/11/19 02:26:18;;;;;;;6.75;4.72;;;-0.60;93.50;;;;;;5009073;28;20058;-73
2022/11/19 02:28:46;;;;;;;8.73;5.05;;;1.00;79.80;;;;;;5012177;28;20483;-72
2022/11/19 02:31:15;;;;;;;6.90;4.93;;;-0.60;93.60;;;;;;5018391;28;20406;-73
2022/11/19 02:33:43;;;;;;;7.45;4.70;;;-0.90;93.00;;;;;;5032865;28;20049;-73
2022/11/19 02:36:10;;;;;;;9.30;4.72;;;;;;;;;;5031745;28;20267;-73
2022/11/19 02:38:39;;;;;;;10.18;5.22;;;-0.70;78.90;;;;;;5031296;28;20060;-73
2022/11/19 02:44:57;;;;;;;7.95;5.25;;;;;;;;;;5012790;28;20034;-73
2022/11/19 02:46:39;;;;;;;7.35;4.28;;;-0.80;79.20;;;;;;5012749;28;20053;-73
2022/11/19 02:49:06;;;;;;;8.20;5.03;;;;;;;;;;5012830;28;20053;-73
2022/11/19 02:51:33;;;;;;;8.25;5.47;;;-1.40;93.40;;;;;;5019258;28;20132;-73
2022/11/19 02:54:00;;;;;;;7.47;4.82;;;;;;;;;;5032415;28;20056;-73
2022/11/19 02:56:47;;;;;;;7.55;5.05;;;-0.80;85.80;;;;;;5031494;28;20557;-73
2022/11/19 03:04:44;;;;;;;;;;;-0.90;79.40;;;;;;5012129;28;20061;-73
2022/11/19 03:07:13;;;;;;;7.38;4.93;;;-0.90;78.60;;;;;;5012509;28;20000;-73
2022/11/19 03:09:40;;;;;;;7.28;4.95;;;;;;;;;;5019444;28;20124;-74
2022/11/19 03:12:10;;;;;;;9.77;5.10;;;-1.00;79.30;;;;;;5030700;28;20058;-73
2022/11/19 03:17:30;;;;;;;10.20;5.40;;;-1.00;79.40;;;;;;5032130;28;20054;-73
2022/11/19 03:19:58;;;;;;;7.93;5.10;;;-1.00;79.20;;;;;;5021500;28;20050;-73
2022/11/19 03:22:27;;;;;;;6.85;5.00;;;-1.00;79.50;;;;;;5011018;28;20050;-73
2022/11/19 03:24:54;;;;;;;;;;;;;;;;;;5011879;28;20053;-73
2022/11/19 03:27:22;;;;;;;;;;;-1.00;90.00;;;;;;5011918;28;19922;-72
2022/11/19 03:29:50;;;;;;;7.03;4.60;;;-1.00;77.70;;;;;;5020291;28;20299;-72
2022/11/19 03:32:19;;;;;;;8.65;4.68;;;-1.00;79.10;;;;;;5030388;28;20145;-72
2022/11/19 03:34:48;;;;;;;9.05;5.40;;;-1.10;79.30;;;;;;5030865;28;20501;-71
2022/11/19 03:37:15;;;;;;;6.65;5.10;;;;;;;;;;5030858;28;20057;-71
2022/11/19 03:39:42;;;;;;;7.93;4.80;;;;;;;;;;5023669;28;20054;-71
2022/11/19 03:42:10;;;;;;;8.25;5.25;;;-1.10;79.30;;;;;;5010673;28;20053;-71
2022/11/19 03:44:38;;;;;;;7.63;4.90;;;-1.10;79.20;;;;;;5010676;28;20148;-73
2022/11/19 03:47:07;;;;;;;7.72;5.05;;;-1.10;79.20;;;;;;5010919;28;20049;-72
2022/11/19 03:49:35;;;;;;;8.93;5.22;;;-1.10;78.70;;;;;;5016645;28;20087;-73
2022/11/19 03:52:06;;;;;;;8.18;5.15;;;-1.10;79.40;;;;;;5030140;28;20060;-71
2022/11/19 03:54:33;;;;;;;8.18;5.25;;;;;;;;;;5030646;28;20140;-72
2022/11/19 03:57:00;;;;;;;8.48;5.53;;;;;;;;;;5030582;28;20443;-73
2022/11/19 03:59:27;;;;;;;9.40;5.43;;;-1.10;93.70;;;;;;5025661;28;20483;-72
2022/11/19 04:01:54;;;;;;;8.40;5.47;;;;;;;;;;5010186;28;20054;-71
2022/11/19 04:04:36;;;;;;;8.50;5.47;;;;;;;;;;5010813;28;20050;-72
2022/11/19 04:07:05;;;;;;;9.50;5.15;;;-1.30;93.70;;;;;;5010932;28;20092;-72
2022/11/19 04:09:32;;;;;;;8.20;5.22;;;;;;;;;;5016715;28;20410;-74
2022/11/19 04:11:59;;;;;;;8.43;5.40;;;;;;;;;;5031480;28;20085;-71
2022/11/19 04:14:26;;;;;;;7.90;5.72;;;;;;;;;;5035499;28;20057;-73
2022/11/19 04:16:53;;;;;;;7.43;5.13;;;;;;;;;;5034509;28;20057;-72
2022/11/19 04:19:20;;;;;;;10.02;5.93;;;;;;;;;;5030451;28;20050;-73
2022/11/19 04:21:47;;;;;;;7.50;5.15;;;;;;;;;;5013791;28;20064;-72
2022/11/19 04:24:15;;;;;;;8.57;5.82;;;-1.30;79.50;;;;;;5014532;28;20176;-73
2022/11/19 04:26:42;;;;;;;8.98;5.45;;;;;;;;;;5015575;28;20049;-72
2022/11/19 04:29:09;;;;;;;8.60;5.43;;;;;;;;;;5015728;28;20157;-72
2022/11/19 04:31:37;;;;;;;9.30;5.68;;;;;;;;;;5033364;28;20054;-72
2022/11/19 04:34:04;;;;;;;8.00;5.10;;;;;;;;;;5033804;28;20053;-72
2022/11/19 04:36:31;;;;;;;7.88;5.28;;;;;;;;;;5033829;28;20058;-72
2022/11/19 04:38:57;;;;;;;;;;;-1.40;77.50;;;;;;5034081;28;20064;-72
2022/11/19 04:41:25;;;;;;;;;;;-1.40;79.60;;;;;;5014247;28;19922;-72
2022/11/19 04:43:52;;;;;;;;;;;-1.40;78.20;;;;;;5014778;28;19921;-71
2022/11/19 04:46:18;;;;;;;;;;;-1.50;79.80;;;;;;5014449;28;19926;-72
2022/11/19 04:48:45;;;;;;;;;;;-1.40;79.90;;;;;;5014537;28;20285;-72
2022/11/19 04:51:11;;;;;;;;;;;-1.40;80.10;;;;;;5031524;28;19927;-72
2022/11/19 04:53:38;;;;;;;;;;;-1.60;80.10;;;;;;5034132;28;19927;-72
2022/11/19 04:56:05;;;;;;;;;;;-1.40;79.90;;;;;;5035168;28;20007;-72
2022/11/19 04:58:33;;;;;;;;;;;-1.50;80.10;;;;;;5035129;28;20301;-73
2022/11/19 05:00:59;;;;;;;;;;;-1.60;80.60;;;;;;5018381;28;19928;-74
2022/11/19 05:03:26;;;;;;;;;;;-1.50;80.50;;;;;;5014417;28;19932;-72
2022/11/19 05:05:52;;;;;;;;;;;-1.50;80.20;;;;;;5014329;28;19928;-72
2022/11/19 05:08:19;;;;;;;;;;;-1.70;80.70;;;;;;5014321;28;20000;-72
2022/11/19 05:10:48;;;;;;;;;;;-1.50;80.70;;;;;;5027530;28;19921;-74
2022/11/19 05:13:14;;;;;;;;;;;-1.60;80.40;;;;;;5035029;28;19928;-72
2022/11/19 05:15:42;;;;;;;;;;;-1.50;80.30;;;;;;5033938;28;19999;-72
2022/11/19 05:18:09;;;;;;;;;;;-1.80;80.60;;;;;;5034741;28;20063;-72
2022/11/19 05:20:35;;;;;;;;;;;-1.70;80.80;;;;;;5020192;28;19937;-73
2022/11/19 05:23:02;;;;;;;;;;;-1.60;80.70;;;;;;5012853;28;20008;-72
2022/11/19 05:25:29;;;;;;;;;;;-1.60;80.10;;;;;;5013962;28;19921;-72
2022/11/19 05:27:55;;;;;;;;;;;-1.60;81.00;;;;;;5015086;28;19921;-72
2022/11/19 05:30:22;;;;;;;;;;;-1.70;80.90;;;;;;5023388;28;19921;-72
2022/11/19 05:32:50;;;;;;;;;;;-1.60;81.00;;;;;;5033586;28;19925;-72
2022/11/19 05:35:16;;;;;;;;;;;-1.60;80.40;;;;;;5033665;28;20446;-72
2022/11/19 05:37:43;;;;;;;;;;;-1.70;80.90;;;;;;5033528;28;20082;-72
2022/11/19 05:40:10;;;;;;;;;;;-1.60;80.90;;;;;;5023967;28;20039;-72
2022/11/19 05:42:36;;;;;;;;;;;-1.80;80.40;;;;;;5030364;28;19921;-72
2022/11/19 05:45:03;;;;;;;;;;;-1.70;80.50;;;;;;5013548;28;19928;-71
2022/11/19 05:47:30;;;;;;;;;;;-1.70;80.40;;;;;;5030157;28;19921;-73
2022/11/19 05:49:58;;;;;;;;;;;-1.80;81.10;;;;;;5019317;28;19921;-72
2022/11/19 05:52:24;;;;;;;;;;;-1.70;81.20;;;;;;5033140;28;19925;-73
2022/11/19 05:54:51;;;;;;;;;;;-1.70;80.40;;;;;;5033266;28;19921;-72
2022/11/19 05:57:17;;;;;;;;;;;-1.80;81.00;;;;;;5034205;28;19960;-73
2022/11/19 05:59:44;;;;;;;;;;;-1.90;80.80;;;;;;5029098;28;20263;-72
2022/11/19 06:02:10;;;;;;;;;;;-1.80;80.90;;;;;;5013526;28;20358;-72
2022/11/19 06:04:37;;;;;;;;;;;-1.70;80.30;;;;;;5013200;28;20008;-72
2022/11/19 06:07:05;;;;;;;;;;;-1.90;80.80;;;;;;5013253;28;19921;-72
2022/11/19 06:09:32;;;;;;;;;;;-1.80;80.80;;;;;;5016768;28;19921;-71
2022/11/19 06:11:59;;;;;;;;;;;-1.90;80.70;;;;;;5032384;28;20304;-71
2022/11/19 06:14:26;;;;;;;;;;;-1.80;80.30;;;;;;5033770;28;19925;-72
2022/11/19 06:16:54;;;;;;;;;;;-1.90;80.70;;;;;;5032635;28;20016;-71
2022/11/19 06:19:20;;;;;;;;;;;-1.90;80.80;;;;;;5031314;28;19921;-71
2022/11/19 06:21:47;;;;;;;;;;;-1.80;81.10;;;;;;5013302;28;19921;-71
2022/11/19 06:24:15;;;;;;;;;;;-1.80;80.60;;;;;;5012846;28;19922;-71
2022/11/19 06:26:41;;;;;;;;;;;-1.90;81.10;;;;;;5012845;28;20325;-71
2022/11/19 06:29:08;;;;;;;;;;;-1.90;81.20;;;;;;5013786;28;19953;-71
2022/11/19 06:31:34;;;;;;;;;;;-1.90;81.00;;;;;;5030501;28;19992;-71
2022/11/19 06:34:01;;;;;;;;;;;-1.90;80.60;;;;;;5032468;28;20004;-71
2022/11/19 06:36:28;;;;;;;;;;;-2.00;81.20;;;;;;5033490;28;20021;-71
2022/11/19 06:38:54;;;;;;;;;;;-1.90;81.30;;;;;;5032225;28;19921;-72
2022/11/19 06:41:22;;;;;;;;;;;-2.00;81.40;;;;;;5014817;28;19927;-71
2022/11/19 06:43:49;;;;;;;;;;;-2.00;81.70;;;;;;5012356;28;19925;-71
2022/11/19 06:46:15;;;;;;;;;;;-2.00;81.40;;;;;;5012421;28;19921;-71
2022/11/19 06:48:42;;;;;;;;;;;-2.10;81.90;;;;;;5012523;28;19990;-70
2022/11/19 06:51:09;;;;;;;;;;;-2.00;82.00;;;;;;5026131;28;19931;-70
2022/11/19 06:53:35;;;;;;;;;;;-2.10;82.10;;;;;;5032186;28;19921;-70
2022/11/19 06:56:02;;;;;;;;;;;-1.70;81.70;;;;;;5032893;28;19943;-70
2022/11/19 06:58:30;;;;;;;;;;;-2.10;81.80;;;;;;5032955;28;19994;-70
2022/11/19 07:00:57;;;;;;;;;;;-2.10;82.10;;;;;;5029342;28;19935;-70
2022/11/19 07:03:24;;;;;;;;;;;-2.10;82.00;;;;;;5031733;28;19921;-70
2022/11/19 07:05:50;;;;;;;;;;;-2.00;92.10;;;;;;5031619;28;20000;-70
2022/11/19 07:08:17;;;;;;;;;;;-1.90;82.80;;;;;;5031591;28;19927;-70
2022/11/19 07:10:44;;;;;;;;;;;-2.20;82.00;;;;;;5020257;28;20375;-70
2022/11/19 07:13:10;;;;;;;;;;;-2.10;81.70;;;;;;5012117;28;19922;-70
2022/11/19 07:15:38;;;;;;;;;;;-2.10;81.30;;;;;;5012747;28;19984;-70
2022/11/19 07:18:05;;;;;;;;;;;-2.20;81.80;;;;;;5013047;28;20289;-70
2022/11/19 07:20:31;;;;;;;;;;;-2.00;81.80;;;;;;5012419;28;19921;-70
2022/11/19 07:22:58;;;;;;;;;;;-2.10;81.70;;;;;;5011946;28;19921;-70
2022/11/19 07:25:24;;;;;;;;;;;-2.10;81.50;;;;;;5011701;28;20012;-70
2022/11/19 07:27:51;;;;;;;;;;;-2.30;82.00;;;;;;5012782;28;20390;-69
2022/11/19 07:30:17;;;;;;;;;;;-2.20;82.00;;;;;;5018809;28;19925;-69
2022/11/19 07:32:45;;;;;;;;;;;-1.90;82.00;;;;;;5031596;28;19921;-69
2022/11/19 07:35:12;;;;;;;;;;;-2.20;81.10;;;;;;5032518;28;19921;-69
2022/11/19 07:37:38;;;;;;;;;;;-2.20;81.70;;;;;;5032237;28;19921;-69
2022/11/19 07:40:05;;;;;;;;;;;-2.20;81.70;;;;;;5025459;28;19925;-69
2022/11/19 07:42:49;;;;;;;;;;;-2.20;81.30;;;;;;5012846;28;20030;-69
2022/11/19 07:45:16;;;;;;;;;;;-2.10;81.20;;;;;;5012706;28;19917;-69
2022/11/19 07:47:42;;;;;;;;;;;-2.20;81.80;;;;;;5011879;28;19921;-70
2022/11/19 07:50:11;;;;;;;;;;;-2.10;81.90;;;;;;5015707;28;19925;-70
2022/11/19 07:52:37;;;;;;;;;;;-2.20;81.70;;;;;;5031524;28;20015;-69
2022/11/19 07:55:04;;;;;;;;;;;-2.10;81.40;;;;;;5031455;28;20521;-69
2022/11/19 07:57:31;;;;;;;;;;;-2.10;81.70;;;;;;5024101;28;20362;-70
2022/11/19 07:59:57;;;;;;;;;;;-2.20;81.90;;;;;;5013100;28;20301;-71
2022/11/19 08:02:24;;;;;;;;;;;-2.20;81.80;;;;;;5030565;28;19921;-69
2022/11/19 08:04:50;;;;;;;;;;;-2.10;81.40;;;;;;5031205;28;19920;-70
2022/11/19 08:07:18;;;;;;;;;;;-2.10;82.00;;;;;;5031363;28;20405;-70
2022/11/19 08:09:45;;;;;;;;;;;-2.10;82.10;;;;;;5030912;28;19921;-70
2022/11/19 08:12:11;;;;;;;;;;;-2.00;82.00;;;;;;5024260;28;19921;-70
2022/11/19 08:14:38;;;;;;;;;;;-2.00;81.30;;;;;;5019080;28;19928;-70
2022/11/19 08:19:49;;;;;;;;;;;-2.00;79.90;;;;;;5030646;28;20011;-69
2022/11/19 08:22:15;;;;;;;;;;;-2.00;81.40;;;;;;5031443;28;19921;-70
2022/11/19 08:24:43;;;;;;;;;;;-2.00;80.80;;;;;;5031017;28;19921;-70
2022/11/19 08:27:10;;;;;;;;;;;-2.10;81.30;;;;;;5028997;28;19931;-70
2022/11/19 08:29:37;;;;;;;;;;;-2.00;81.60;;;;;;5024734;28;20391;-70
2022/11/19 08:32:04;;;;;;;;;;;-2.30;81.70;;;;;;5021109;28;19929;-70
2022/11/19 08:34:31;;;;;;;;;;;-1.90;82.00;;;;;;5015387;28;20004;-70
2022/11/19 08:36:58;;;;;;;;;;;-2.00;82.30;;;;;;5013345;28;19921;-70
2022/11/19 08:39:25;;;;;;;;;;;-2.10;82.60;;;;;;5020922;28;19921;-70
2022/11/19 08:44:37;;;;;;;;;;;-1.90;82.00;;;;;;5021673;28;19971;-70
2022/11/19 08:47:03;;;;;;;;;;;-2.00;82.40;;;;;;5020747;28;19921;-69
2022/11/19 08:49:30;;;;;;;;;;;-1.50;82.70;;;;;;5016367;28;19922;-69
2022/11/19 08:51:57;;;;;;;;;;;-1.90;82.80;;;;;;5019239;28;19969;-70
2022/11/19 08:54:24;;;;;;;;;;;-1.80;82.10;;;;;;5019684;28;19921;-70
2022/11/19 08:56:50;;;;;;;;;;;-1.90;82.60;;;;;;5017788;28;20020;-70
2022/11/19 08:59:20;;;;;;;;;;;-1.90;83.00;;;;;;5013567;28;19921;-69
2022/11/19 09:01:47;;;;;;;;;;;-1.80;82.00;;;;;;5016125;28;19928;-69
2022/11/19 09:04:13;;;;;;;;;;;-1.70;82.10;;;;;;5025649;28;20004;-69
2022/11/19 09:06:40;;;;;;;;;;;-1.80;82.50;;;;;;5015754;28;19925;-69
2022/11/19 09:09:07;;;;;;;;;;;-1.80;82.30;;;;;;5032695;28;19920;-69
2022/11/19 09:11:34;;;;;;;;;;;-1.80;82.40;;;;;;5033303;28;20378;-70
2022/11/19 09:14:00;;;;;;;;;;;-1.60;81.50;;;;;;5021328;28;19928;-70
2022/11/19 09:16:28;;;;;;;;;;;-1.70;81.90;;;;;;5014097;28;19971;-70
2022/11/19 09:18:55;;;;;;;;;;;-1.70;82.00;;;;;;5014998;28;20325;-70
2022/11/19 09:21:21;;;;;;;;;;;-1.60;81.90;;;;;;5014504;28;19944;-70
2022/11/19 09:23:48;;;;;;;;;;;-1.60;81.90;;;;;;5021057;28;19921;-71
2022/11/19 09:26:15;;;;;;;;;;;-1.50;81.40;;;;;;5034189;28;19927;-70
2022/11/19 09:28:42;;;;;;;;;;;-1.50;81.90;;;;;;5034752;28;19927;-70
2022/11/19 09:31:09;;;;;;;;;;;-1.50;82.00;;;;;;5033137;28;19921;-70
2022/11/19 09:33:38;;;;;;;;;;;-1.50;81.90;;;;;;5034810;28;19927;-70
2022/11/19 09:36:04;;;;;;;;;;;-1.40;81.30;;;;;;5034624;28;20286;-70
2022/11/19 09:38:33;;;;;;;;;;;-1.40;81.40;;;;;;5033352;28;20400;-70
2022/11/19 09:41:02;;;;;;;;;;;-1.30;81.60;;;;;;5025725;28;19980;-70
2022/11/19 09:43:32;;;;;;;;;;;-1.30;81.30;;;;;;5014832;28;20353;-70
2022/11/19 09:46:00;;;;;;;;;;;-1.30;80.80;;;;;;5013560;28;19928;-70
2022/11/19 09:48:32;;;;;;;;;;;-1.40;80.90;;;;;;5014676;28;20340;-70
2022/11/19 09:51:00;;;;;;;;;;;-1.20;79.50;;;;;;5020049;28;20377;-70
2022/11/19 09:53:29;;;;;;;;;;;-1.20;81.10;;;;;;5034051;28;19921;-70
2022/11/19 09:55:55;;;;;;;;;;;-1.10;80.20;;;;;;5033169;28;19921;-70
2022/11/19 09:58:23;;;;;;;;;;;-1.20;80.90;;;;;;5034281;28;19921;-70
2022/11/19 10:00:49;;;;;;;;;;;-1.20;80.80;;;;;;5032324;28;20540;-70
2022/11/19 10:03:16;;;;;;;;;;;-1.00;80.90;;;;;;5034041;28;19928;-70
2022/11/19 10:05:46;;;;;;;;;;;-1.00;80.30;;;;;;5021274;28;19929;-70
2022/11/19 10:08:18;;;;;;;;;;;-1.10;80.80;;;;;;5012947;28;19925;-70
2022/11/19 10:10:46;;;;;;;;;;;-1.00;80.70;;;;;;5011914;28;20008;-70
2022/11/19 10:13:17;;;;;;;;;;;-1.10;80.60;;;;;;5014165;28;19927;-70
2022/11/19 10:15:48;;;;;;;;;;;-0.90;80.50;;;;;;5013113;28;20473;-70
2022/11/19 10:18:16;;;;;;;;;;;-1.00;80.80;;;;;;5013962;28;19931;-71
2022/11/19 10:20:53;;;;;;;;;;;-0.90;80.50;;;;;;5014259;28;19939;-70
2022/11/19 10:23:22;;;;;;;;;;;-1.00;80.50;;;;;;5015129;28;19971;-71
2022/11/19 10:25:49;;;;;;;;;;;-0.80;80.40;;;;;;5033673;28;19921;-71
2022/11/19 10:28:17;;;;;;;;;;;-0.90;80.80;;;;;;5032585;28;19925;-71
2022/11/19 10:30:47;;;;;;;;;;;-0.80;81.00;;;;;;5033053;28;19921;-71
2022/11/19 10:33:14;;;;;;;;;;;-0.20;81.20;;;;;;5030642;28;19921;-71
2022/11/19 10:35:42;;;;;;;;;;;-0.60;80.00;;;;;;5012470;28;19921;-71
2022/11/19 10:38:11;;;;;;;;;;;-0.80;80.40;;;;;;5012676;28;19963;-70
2022/11/19 10:40:40;;;;;;;;;;;-0.70;80.60;;;;;;5011743;28;19922;-71
2022/11/19 10:43:10;;;;;;;;;;;-0.70;80.80;;;;;;5013597;28;20027;-71
2022/11/19 10:45:36;;;;;;;;;;;-0.50;80.40;;;;;;5012442;28;19921;-71
2022/11/19 10:48:04;;;;;;;;;;;-0.60;81.00;;;;;;5014263;28;19928;-70
2022/11/19 10:50:31;;;;;;;10.15;7.32;;;-0.60;93.70;;;;;;5029684;28;24441;-71
2022/11/19 10:52:59;;;;;;;10.13;6.78;;;-0.30;80.00;;;;;;5031861;28;20057;-71
2022/11/19 10:55:27;;;;;;;7.90;5.75;;;-1.10;90.00;;;;;;5032011;28;20092;-71
2022/11/19 10:58:06;;;;;;;8.30;5.80;;;-0.20;94.10;;;;;;5031207;28;20531;-71
2022/11/19 11:00:33;;;;;;;10.13;6.30;;;-0.40;94.20;;;;;;5030529;28;20049;-71
2022/11/19 11:03:01;;;;;;;9.75;6.38;;;-0.30;79.70;;;;;;5031491;28;20086;-71
2022/11/19 11:05:29;;;;;;;8.10;5.72;;;-1.20;90.50;;;;;;5029465;28;20092;-71
2022/11/19 11:07:56;;;;;;;9.35;5.70;;;;;;;;;;5012607;28;20056;-71
2022/11/19 11:10:28;;;;;;;8.55;5.88;;;-0.10;94.20;;;;;;5011341;28;20124;-71
2022/11/19 11:15:46;;;;;;;9.13;5.65;;;-0.10;82.90;;;;;;5012440;28;20058;-71
2022/11/19 11:18:13;;;;;;;9.35;5.80;;;;;;;;;;5012293;28;20160;-72
2022/11/19 11:20:46;;;;;;;8.05;5.55;;;0.00;80.20;;;;;;5011181;28;20105;-72
2022/11/19 11:23:14;;;;;;;10.27;6.03;;;-0.20;79.90;;;;;;5012302;28;20132;-72
2022/11/19 11:25:41;;;;;;;8.18;5.13;;;;;;;;;;5012560;28;20061;-71
2022/11/19 11:28:12;;;;;;;9.35;5.82;;;0.10;79.90;;;;;;5012617;28;20064;-72
2022/11/19 11:30:39;;;;;;;9.77;5.93;;;;;;;;;;5013279;28;20566;-71
2022/11/19 11:33:32;;;;;;;9.70;5.55;;;-0.50;93.60;;;;;;5014114;28;20133;-71
2022/11/19 11:36:00;;;;;;;8.38;5.80;;;0.20;79.70;;;;;;5032331;28;20054;-72
2022/11/19 11:38:27;;;;;;;8.20;5.32;;;;;;;;;;5032279;28;20478;-71
2022/11/19 11:41:00;;;;;;;11.05;5.65;;;0.30;93.90;;;;;;5031350;28;20053;-72
2022/11/19 11:43:28;;;;;;;;;;;0.10;80.00;;;;;;5032630;28;20084;-72
2022/11/19 11:45:56;;;;;;;7.88;5.30;;;0.20;79.50;;;;;;5031936;28;20552;-72
2022/11/19 11:48:23;;;;;;;7.53;5.15;;;;;;;;;;5021227;28;20103;-72
2022/11/19 11:50:50;;;;;;;9.30;5.35;;;;;;;;;;5011551;28;20133;-72
2022/11/19 11:53:18;;;;;;;7.00;4.88;;;;;;;;;;5011017;28;20054;-72
2022/11/19 11:55:45;;;;;;;8.93;4.95;;;;;;;;;;5011954;28;20042;-72
2022/11/19 11:58:25;;;;;;;9.02;4.88;;;0.40;85.60;;;;;;5012143;28;20050;-72
2022/11/19 12:00:54;;;;;;;7.28;4.90;;;0.50;79.20;;;;;;5010346;28;20132;-71
2022/11/19 12:03:22;;;;;;;7.80;5.13;;;;;;;;;;5012218;28;20050;-71
2022/11/19 12:05:55;;;;;;;9.48;5.07;;;0.50;93.50;;;;;;5010904;28;20054;-71
2022/11/19 12:08:41;;;;;;;9.02;4.97;;;2.40;79.30;;;;;;5010519;28;20416;-71
2022/11/19 12:11:10;;;;;;;8.07;5.03;;;0.80;79.30;;;;;;5010415;28;20509;-71
2022/11/19 12:13:47;;;;;;;8.55;4.80;;;0.00;93.30;;;;;;5010721;28;20053;-72
2022/11/19 12:16:19;;;;;;;9.95;4.97;;;1.70;84.20;;;;;;5012515;28;20054;-72
2022/11/19 12:18:50;;;;;;;9.13;5.30;;;0.70;87.40;;;;;;5031602;28;20124;-72
2022/11/19 12:21:24;;;;;;;10.38;5.25;;;1.20;81.30;;;;;;5029360;28;20507;-72
2022/11/19 12:23:58;;;;;;;11.00;4.82;;;0.70;79.00;;;;;;5030450;28;20408;-71
2022/11/19 12:26:30;;;;;;;6.77;4.90;;;0.70;93.60;;;;;;5030531;28;20049;-72
2022/11/19 12:29:04;;;;;;;7.63;4.65;;;0.80;93.40;;;;;;5030310;28;20890;-71
2022/11/19 12:31:39;;;;;;;7.60;4.45;;;0.20;92.90;;;;;;5023950;28;20064;-71
2022/11/19 12:34:30;;;;;;;8.82;4.75;;;0.80;93.40;;;;;;5013880;28;20057;-72
2022/11/19 12:37:00;;;;;;;6.72;4.60;;;0.80;86.60;;;;;;5015221;28;20525;-72
2022/11/19 12:39:33;;;;;;;6.85;4.47;;;0.80;78.70;;;;;;5014287;28;20058;-71
2022/11/19 12:42:22;;;;;;;6.45;4.60;;;0.60;93.30;;;;;;5013764;28;20060;-71
2022/11/19 12:44:52;;;;;;;6.95;4.60;;;0.30;79.00;;;;;;5013860;28;20062;-71
2022/11/19 12:47:27;;;;;;;7.45;4.72;;;1.00;84.50;;;;;;5015553;28;20037;-71
2022/11/19 12:49:58;;;;;;;7.18;4.38;;;1.70;93.50;;;;;;5013987;28;20475;-72
2022/11/19 12:52:52;;;;;;;8.25;4.93;;;0.60;80.30;;;;;;5014105;28;20053;-71
2022/11/19 12:55:25;;;;;;;6.43;4.35;;;2.30;81.80;;;;;;5013908;28;20050;-72
2022/11/19 12:57:55;;;;;;;7.07;4.53;;;1.80;93.50;;;;;;5014051;28;20066;-72
2022/11/19 13:00:25;;;;;;;7.88;4.60;;;;;;;;;;5014357;28;20061;-72
2022/11/19 13:02:58;;;;;;;6.43;4.40;;;0.60;93.20;;;;;;5015022;28;20049;-72
2022/11/19 13:05:27;;;;;;;6.50;4.65;;;0.50;78.60;;;;;;5013854;28;20062;-72
2022/11/19 13:07:56;;;;;;;8.32;4.80;;;0.50;92.90;;;;;;5014830;28;20050;-71
2022/11/19 13:10:23;;;;;;;7.28;3.92;;;1.00;93.20;;;;;;5014142;28;20045;-71
2022/11/19 13:12:51;;;;;;;6.38;4.20;;;0.30;85.40;;;;;;5014748;28;20064;-71
2022/11/19 13:15:20;;;;;;;8.30;4.50;;;1.20;93.20;;;;;;5014446;28;20092;-71
2022/11/19 13:17:48;;;;;;;7.05;4.65;;;1.10;78.40;;;;;;5030374;28;20137;-71
2022/11/19 13:20:19;;;;;;;7.13;4.45;;;2.20;93.30;;;;;;5032532;28;20057;-71
2022/11/19 13:22:46;;;;;;;6.32;4.20;;;;;;;;;;5034372;28;20061;-72
2022/11/19 13:25:16;;;;;;;5.68;4.30;;;1.10;78.40;;;;;;5033202;28;20136;-72
2022/11/19 13:27:44;;;;;;;6.10;4.93;;;;;;;;;;5033091;28;20053;-72
2022/11/19 13:30:16;;;;;;;6.93;4.60;;;1.30;92.30;;;;;;5031238;28;20414;-72
2022/11/19 13:32:46;;;;;;;7.35;5.18;;;1.10;78.00;;;;;;5013228;28;20060;-72
2022/11/19 13:35:18;;;;;;;9.38;5.25;;;1.20;92.60;;;;;;5014397;28;20137;-72
2022/11/19 13:37:49;;;;;;;7.72;4.93;;;1.20;93.00;;;;;;5013179;28;20140;-72
2022/11/19 13:40:20;;;;;;;6.88;4.57;;;1.20;78.20;;;;;;5012565;28;20413;-72
2022/11/19 13:45:31;;;;;;;8.52;5.18;;;;;;;;;;5019734;28;20041;-71
2022/11/19 13:47:59;;;;;;;8.48;4.97;;;1.20;77.90;;;;;;5032913;28;20144;-72
2022/11/19 13:50:29;;;;;;;9.10;4.80;;;1.20;78.10;;;;;;5032189;28;20063;-72
2022/11/19 13:52:58;;;;;;;7.20;4.78;;;1.20;92.90;;;;;;5033810;28;20128;-72
2022/11/19 13:55:33;;;;;;;6.50;4.60;;;1.80;83.00;;;;;;5033813;28;20053;-72
2022/11/19 13:58:08;;;;;;;7.32;4.72;;;1.20;81.00;;;;;;5033797;28;20494;-72
2022/11/19 14:00:35;;;;;;;8.13;4.80;;;;;;;;;;5017901;28;20050;-72
2022/11/19 14:03:12;;;;;;;7.93;4.82;;;1.30;92.60;;;;;;5013880;28;20242;-72
2022/11/19 14:06:11;;;;;;;7.82;5.30;;;0.40;92.50;;;;;;5013632;28;20152;-72
2022/11/19 14:08:45;;;;;;;6.70;4.78;;;1.70;92.80;;;;;;5012740;28;20057;-72
2022/11/19 14:11:19;;;;;;;6.38;5.00;;;1.10;92.70;;;;;;5013277;28;20053;-72
2022/11/19 14:14:06;;;;;;;10.35;5.72;;;0.90;92.70;;;;;;5014278;28;20123;-72
2022/11/19 14:28:43;;;;;;;7.82;5.25;;;1.20;87.30;;;;;;5018850;28;20049;-73
2022/11/19 14:31:10;;;;;;;10.13;5.40;;;;;;;;;;5032455;28;20057;-72
2022/11/19 14:34:02;;;;;;;9.48;6.00;;;1.10;78.00;;;;;;5033012;28;20049;-73
2022/11/19 14:36:38;;;;;;;9.68;5.07;;;1.20;92.90;;;;;;5030048;28;20053;-72
2022/11/19 14:39:12;;;;;;;9.10;5.65;;;1.20;93.00;;;;;;5031869;28;20136;-72